createdAt,value
2019-05-21T00:02:57.331Z,12.57
2019-05-21T00:06:03.920Z,12.75
2019-05-21T00:09:10.520Z,12.72
2019-05-21T00:12:17.286Z,12.38
2019-05-21T00:15:23.905Z,12.25
2019-05-21T00:18:30.335Z,12.63
2019-05-21T00:21:37.190Z,12.20
2019-05-21T00:24:48.432Z,12.00
2019-05-21T00:28:01.279Z,11.81
2019-05-21T00:32:03.949Z,11.42
2019-05-21T00:36:04.935Z,11.40
2019-05-21T00:40:05.551Z,11.75
2019-05-21T00:43:12.290Z,11.36
2019-05-21T00:46:18.798Z,11.58
2019-05-21T00:49:25.531Z,11.20
2019-05-21T00:52:32.148Z,10.83
2019-05-21T00:55:38.771Z,11.20
2019-05-21T00:58:46.335Z,11.21
2019-05-21T01:01:53.033Z,10.97
2019-05-21T01:05:01.353Z,10.94
2019-05-21T01:08:08.053Z,11.18
2019-05-21T01:11:14.695Z,10.90
2019-05-21T01:14:21.255Z,10.88
2019-05-21T01:17:27.830Z,10.61
2019-05-21T01:20:34.428Z,10.70
2019-05-21T01:23:43.798Z,10.79
2019-05-21T01:26:50.707Z,10.97
2019-05-21T01:29:57.275Z,10.81
2019-05-21T01:33:03.741Z,10.74
2019-05-21T01:36:10.756Z,10.60
2019-05-21T01:39:17.446Z,10.78
2019-05-21T01:42:23.981Z,10.59
2019-05-21T01:45:30.780Z,10.83
2019-05-21T01:48:37.294Z,11.04
2019-05-21T01:51:45.058Z,10.75
2019-05-21T01:54:52.792Z,10.90
2019-05-21T01:57:59.312Z,10.82
2019-05-21T02:01:05.970Z,10.39
2019-05-21T02:04:12.429Z,10.46
2019-05-21T02:07:18.883Z,10.45
2019-05-21T02:10:25.568Z,10.63
2019-05-21T02:13:32.142Z,10.79
2019-05-21T02:16:38.772Z,11.07
2019-05-21T02:19:48.352Z,11.22
2019-05-21T02:22:55.019Z,11.35
2019-05-21T02:26:02.015Z,11.38
2019-05-21T02:29:08.515Z,11.47
2019-05-21T02:32:15.064Z,11.52
2019-05-21T02:35:21.760Z,11.41
2019-05-21T02:38:28.301Z,11.47
2019-05-21T02:41:34.818Z,11.54
2019-05-21T02:44:44.633Z,11.72
2019-05-21T02:47:51.220Z,11.65
2019-05-21T02:50:57.767Z,11.65
2019-05-21T02:54:04.404Z,11.59
2019-05-21T02:57:11.035Z,11.56
2019-05-21T03:00:38.761Z,11.62
2019-05-21T03:03:48.005Z,11.83
2019-05-21T03:06:55.592Z,11.78
2019-05-21T03:10:03.188Z,11.52
2019-05-21T03:13:09.837Z,11.41
2019-05-21T03:16:16.520Z,11.29
2019-05-21T03:19:23.360Z,11.25
2019-05-21T03:22:32.094Z,11.13
2019-05-21T03:25:44.713Z,11.17
2019-05-21T03:28:52.482Z,11.27
2019-05-21T03:31:59.005Z,11.49
2019-05-21T03:35:05.959Z,11.45
2019-05-21T03:38:12.627Z,11.19
2019-05-21T03:41:19.146Z,11.09
2019-05-21T03:44:25.700Z,10.84
2019-05-21T03:47:32.207Z,10.96
2019-05-21T03:50:38.855Z,11.12
2019-05-21T03:53:48.140Z,11.08
2019-05-21T03:56:54.623Z,11.24
2019-05-21T04:00:01.253Z,11.22
2019-05-21T04:03:08.550Z,11.11
2019-05-21T04:06:15.073Z,11.16
2019-05-21T04:09:21.622Z,11.19
2019-05-21T04:12:28.145Z,11.26
2019-05-21T04:15:36.910Z,11.16
2019-05-21T04:18:56.986Z,11.22
2019-05-21T04:22:03.520Z,11.22
2019-05-21T04:25:10.161Z,11.32
2019-05-21T04:28:18.883Z,11.40
2019-05-21T04:31:25.536Z,11.49
2019-05-21T04:34:32.162Z,11.51
2019-05-21T04:37:38.739Z,11.52
2019-05-21T04:40:45.410Z,11.64
2019-05-21T04:43:51.841Z,11.75
2019-05-21T04:46:58.353Z,11.77
2019-05-21T04:50:05.534Z,11.69
2019-05-21T04:53:12.001Z,11.75
2019-05-21T04:56:18.522Z,12.03
2019-05-21T04:59:24.958Z,11.81
2019-05-21T05:02:31.376Z,12.17
2019-05-21T05:05:37.972Z,12.37
2019-05-21T05:08:45.806Z,12.35
2019-05-21T05:11:52.324Z,12.63
2019-05-21T05:14:58.872Z,12.78
2019-05-21T05:18:05.793Z,12.64
2019-05-21T05:21:12.284Z,12.62
2019-05-21T05:24:18.816Z,12.78
2019-05-21T05:27:25.209Z,12.83
2019-05-21T05:30:31.782Z,12.99
2019-05-21T05:33:42.809Z,12.98
2019-05-21T05:36:49.416Z,12.94
2019-05-21T05:39:55.813Z,12.85
2019-05-21T05:43:02.329Z,12.77
2019-05-21T05:46:08.855Z,12.82
2019-05-21T05:49:20.856Z,12.95
2019-05-21T05:52:27.437Z,12.99
2019-05-21T05:55:34.061Z,13.12
2019-05-21T05:58:40.445Z,13.18
2019-05-21T06:01:48.706Z,13.31
2019-05-21T06:04:55.169Z,13.22
2019-05-21T06:08:01.932Z,13.37
2019-05-21T06:11:08.400Z,13.46
2019-05-21T06:14:14.837Z,13.51
2019-05-21T06:17:21.280Z,13.45
2019-05-21T06:20:27.920Z,13.59
2019-05-21T06:23:34.415Z,13.58
2019-05-21T06:26:43.060Z,13.66
2019-05-21T06:29:49.149Z,13.72
2019-05-21T06:32:55.619Z,13.90
2019-05-21T06:36:02.469Z,14.26
2019-05-21T06:39:09.431Z,14.32
2019-05-21T06:42:15.829Z,14.33
2019-05-21T06:45:22.929Z,14.21
2019-05-21T06:48:29.428Z,14.57
2019-05-21T06:51:35.998Z,14.76
2019-05-21T06:54:43.739Z,14.74
2019-05-21T06:57:50.651Z,14.78
2019-05-21T07:00:57.398Z,14.91
2019-05-21T07:04:03.900Z,15.20
2019-05-21T07:07:10.470Z,15.23
2019-05-21T07:10:17.283Z,15.47
2019-05-21T07:13:23.833Z,15.80
2019-05-21T07:16:30.430Z,16.00
2019-05-21T07:19:37.026Z,16.06
2019-05-21T07:22:44.066Z,16.20
2019-05-21T07:25:50.552Z,16.03
2019-05-21T07:28:57.487Z,16.23
2019-05-21T07:32:04.225Z,16.16
2019-05-21T07:35:11.099Z,16.44
2019-05-21T07:38:18.671Z,15.80
2019-05-21T07:41:25.441Z,15.73
2019-05-21T07:44:34.620Z,16.10
2019-05-21T07:47:41.540Z,16.17
2019-05-21T07:50:47.936Z,16.13
2019-05-21T07:53:54.614Z,16.17
2019-05-21T07:57:01.006Z,16.30
2019-05-21T08:00:09.385Z,16.54
2019-05-21T08:03:15.893Z,16.47
2019-05-21T08:06:22.470Z,16.78
2019-05-21T08:09:29.199Z,16.54
2019-05-21T08:12:39.389Z,16.35
2019-05-21T08:15:50.230Z,16.62
2019-05-21T08:18:56.679Z,16.46
2019-05-21T08:22:06.461Z,16.61
2019-05-21T08:25:14.832Z,16.75
2019-05-21T08:28:22.272Z,16.43
2019-05-21T08:31:28.726Z,16.47
2019-05-21T08:34:35.483Z,16.43
2019-05-21T08:37:42.250Z,16.61
2019-05-21T08:40:48.916Z,16.67
2019-05-21T08:43:56.896Z,16.51
2019-05-21T08:47:03.402Z,16.46
2019-05-21T08:50:15.150Z,16.58
2019-05-21T08:53:21.691Z,16.64
2019-05-21T08:56:28.212Z,16.65
2019-05-21T08:59:34.834Z,16.71
2019-05-21T09:02:42.124Z,16.97
2019-05-21T09:05:48.706Z,16.89
2019-05-21T09:08:55.213Z,17.04
2019-05-21T09:12:01.759Z,17.19
2019-05-21T09:15:09.550Z,17.42
2019-05-21T09:18:16.039Z,17.41
2019-05-21T09:21:22.642Z,17.34
2019-05-21T09:24:29.125Z,17.32
2019-05-21T09:27:35.759Z,17.24
2019-05-21T09:30:45.365Z,16.68
2019-05-21T09:33:51.788Z,16.52
2019-05-21T09:36:58.536Z,16.46
2019-05-21T09:40:06.332Z,16.49
2019-05-21T09:43:13.139Z,16.60
2019-05-21T09:46:19.759Z,16.51
2019-05-21T09:49:26.289Z,16.35
2019-05-21T09:52:32.901Z,16.30
2019-05-21T09:55:39.512Z,16.44
2019-05-21T09:58:47.020Z,16.52
2019-05-21T10:02:00.602Z,16.71
2019-05-21T10:05:07.396Z,16.87
2019-05-21T10:08:16.212Z,17.10
2019-05-21T10:11:23.058Z,17.16
2019-05-21T10:14:33.720Z,17.16
2019-05-21T10:17:37.841Z,16.77
2019-05-21T10:20:47.636Z,16.99
2019-05-21T10:23:54.463Z,17.48
2019-05-21T10:27:03.405Z,17.54
2019-05-21T10:30:10.160Z,17.66
2019-05-21T10:33:16.609Z,17.61
2019-05-21T10:36:24.424Z,17.65
2019-05-21T10:39:30.901Z,17.53
2019-05-21T10:42:37.661Z,17.49
2019-05-21T10:45:46.752Z,17.68
2019-05-21T10:48:53.415Z,17.84
2019-05-21T10:51:59.832Z,17.79
2019-05-21T10:55:07.211Z,18.04
2019-05-21T10:58:13.778Z,17.87
2019-05-21T11:01:26.552Z,17.74
2019-05-21T11:04:55.527Z,18.18
2019-05-21T11:08:22.983Z,18.01
2019-05-21T11:11:10.425Z,17.75
2019-05-21T11:14:17.146Z,17.67
2019-05-21T11:17:24.005Z,17.98
2019-05-21T11:20:30.634Z,18.04
2019-05-21T11:23:37.208Z,18.41
2019-05-21T11:26:46.663Z,18.26
2019-05-21T11:29:53.165Z,18.07
2019-05-21T11:32:59.847Z,18.33
2019-05-21T11:36:07.378Z,18.30
2019-05-21T11:39:13.992Z,18.51
2019-05-21T11:42:20.679Z,18.53
2019-05-21T11:45:32.233Z,18.48
2019-05-21T11:48:35.854Z,18.39
2019-05-21T11:51:43.129Z,18.69
2019-05-21T11:54:50.139Z,18.90
2019-05-21T11:58:00.141Z,18.52
2019-05-21T12:01:06.865Z,18.85
2019-05-21T12:04:14.308Z,19.09
2019-05-21T12:07:21.115Z,19.23
2019-05-21T12:10:27.727Z,19.67
2019-05-21T12:13:34.212Z,19.87
2019-05-21T12:16:43.714Z,19.67
2019-05-21T12:19:49.417Z,19.71
2019-05-21T12:22:55.958Z,19.66
2019-05-21T12:26:02.588Z,19.22
2019-05-21T12:29:09.338Z,19.89
2019-05-21T12:32:15.807Z,20.42
2019-05-21T12:35:22.623Z,19.85
2019-05-21T12:38:29.169Z,20.11
2019-05-21T12:41:35.952Z,19.35
2019-05-21T12:44:45.408Z,19.24
2019-05-21T12:47:51.955Z,19.30
2019-05-21T12:50:59.750Z,19.10
2019-05-21T12:54:06.591Z,19.71
2019-05-21T12:57:13.137Z,19.81
2019-05-21T13:00:20.283Z,20.13
2019-05-21T13:03:26.822Z,19.99
2019-05-21T13:06:35.381Z,20.22
2019-05-21T13:09:43.139Z,19.91
2019-05-21T13:12:51.263Z,19.84
2019-05-21T13:15:58.766Z,20.25
2019-05-21T13:19:05.385Z,20.53
2019-05-21T13:22:12.048Z,20.80
2019-05-21T13:25:19.022Z,20.58
2019-05-21T13:28:25.517Z,20.74
2019-05-21T13:31:32.057Z,20.16
2019-05-21T13:34:38.518Z,20.10
2019-05-21T13:37:46.400Z,20.28
2019-05-21T13:40:53.810Z,20.14
2019-05-21T13:44:00.360Z,20.15
2019-05-21T13:47:07.146Z,20.48
2019-05-21T13:50:14.121Z,20.01
2019-05-21T13:53:22.056Z,19.82
2019-05-21T13:56:28.959Z,19.95
2019-05-21T13:59:35.792Z,19.98
2019-05-21T14:02:45.456Z,19.76
2019-05-21T14:05:52.130Z,19.77
2019-05-21T14:08:58.731Z,19.59
2019-05-21T14:12:05.762Z,19.68
2019-05-21T14:15:13.520Z,19.37
2019-05-21T14:18:20.106Z,19.29
2019-05-21T14:21:27.749Z,19.72
2019-05-21T14:24:34.300Z,20.17
2019-05-21T14:27:44.905Z,20.02
2019-05-21T14:30:49.530Z,20.18
2019-05-21T14:33:56.317Z,20.36
2019-05-21T14:37:02.816Z,20.51
2019-05-21T14:40:10.919Z,20.63
2019-05-21T14:43:17.440Z,20.38
2019-05-21T14:46:23.962Z,20.70
2019-05-21T14:49:30.743Z,20.63
2019-05-21T14:52:37.244Z,20.66
2019-05-21T14:55:47.830Z,20.37
2019-05-21T14:58:54.302Z,20.48
2019-05-21T15:02:00.777Z,20.36
2019-05-21T15:05:07.721Z,20.22
2019-05-21T15:08:14.188Z,20.14
2019-05-21T15:11:20.699Z,19.97
2019-05-21T15:14:27.219Z,20.10
2019-05-21T15:17:33.627Z,20.12
2019-05-21T15:20:51.404Z,20.02
2019-05-21T15:24:00.152Z,19.83
2019-05-21T15:27:06.796Z,19.85
2019-05-21T15:30:13.593Z,19.80
2019-05-21T15:33:20.167Z,19.73
2019-05-21T15:36:26.695Z,19.44
2019-05-21T15:39:33.325Z,19.39
2019-05-21T15:42:41.879Z,19.54
2019-05-21T15:45:48.361Z,19.40
2019-05-21T15:48:54.826Z,19.44
2019-05-21T15:52:01.444Z,19.26
2019-05-21T15:55:09.317Z,19.88
2019-05-21T15:58:16.042Z,19.52
2019-05-21T16:01:22.601Z,19.90
2019-05-21T16:04:29.128Z,19.91
2019-05-21T16:07:35.804Z,19.90
2019-05-21T16:10:44.230Z,19.64
2019-05-21T16:13:50.812Z,19.87
2019-05-21T16:16:57.385Z,19.91
2019-05-21T16:20:07.112Z,19.53
2019-05-21T16:23:13.606Z,19.16
2019-05-21T16:26:23.417Z,19.13
2019-05-21T16:29:29.742Z,19.35
2019-05-21T16:32:37.158Z,19.57
2019-05-21T16:35:45.477Z,19.91
2019-05-21T16:38:52.066Z,19.79
2019-05-21T16:41:58.608Z,19.36
2019-05-21T16:45:05.748Z,18.96
2019-05-21T16:48:12.340Z,19.13
2019-05-21T16:51:19.510Z,19.58
2019-05-21T16:54:28.655Z,19.45
2019-05-21T16:57:35.588Z,18.89
2019-05-21T17:00:45.292Z,19.42
2019-05-21T17:04:00.059Z,19.43
2019-05-21T17:07:01.862Z,19.07
2019-05-21T17:10:12.163Z,19.10
2019-05-21T17:13:18.667Z,18.88
2019-05-21T17:16:25.750Z,18.97
2019-05-21T17:19:32.219Z,18.99
2019-05-21T17:22:38.815Z,19.02
2019-05-21T17:25:46.852Z,18.51
2019-05-21T17:28:53.354Z,18.49
2019-05-21T17:31:59.850Z,18.21
2019-05-21T17:35:07.019Z,17.91
2019-05-21T17:38:13.599Z,18.23
2019-05-21T17:41:20.266Z,18.26
2019-05-21T17:44:26.825Z,18.12
2019-05-21T17:47:33.350Z,18.35
2019-05-21T17:50:39.996Z,18.61
2019-05-21T17:53:49.109Z,18.48
2019-05-21T17:56:55.567Z,18.66
2019-05-21T18:00:02.283Z,18.57
2019-05-21T18:03:09.088Z,18.59
2019-05-21T18:06:16.290Z,18.49
2019-05-21T18:09:26.585Z,18.51
2019-05-21T18:12:33.023Z,18.25
2019-05-21T18:15:40.061Z,17.95
2019-05-21T18:18:46.850Z,18.06
2019-05-21T18:21:53.810Z,18.03
2019-05-21T18:25:00.610Z,17.97
2019-05-21T18:28:07.630Z,17.23
2019-05-21T18:31:14.486Z,16.89
2019-05-21T18:34:21.006Z,16.46
2019-05-21T18:37:28.699Z,16.37
2019-05-21T18:40:35.251Z,16.29
2019-05-21T18:43:42.115Z,16.62
2019-05-21T18:46:48.762Z,16.19
2019-05-21T18:49:55.631Z,16.15
2019-05-21T18:53:02.139Z,16.40
2019-05-21T18:56:08.762Z,16.30
2019-05-21T18:59:15.331Z,16.14
2019-05-21T19:02:21.962Z,16.05
2019-05-21T19:05:29.658Z,15.82
2019-05-21T19:08:37.630Z,15.89
2019-05-21T19:11:46.281Z,15.64
2019-05-21T19:14:53.029Z,15.63
2019-05-21T19:17:59.608Z,15.68
2019-05-21T19:21:06.509Z,15.53
2019-05-21T19:24:13.181Z,15.56
2019-05-21T19:27:19.844Z,15.58
2019-05-21T19:30:26.411Z,15.45
2019-05-21T19:33:34.141Z,15.41
2019-05-21T19:36:41.263Z,15.33
2019-05-21T19:43:19.058Z,15.47
2019-05-21T19:46:25.812Z,15.32
2019-05-21T19:49:32.367Z,15.46
2019-05-21T19:52:38.988Z,15.30
2019-05-21T19:55:45.909Z,15.34
2019-05-21T19:58:52.681Z,15.27
2019-05-21T20:01:59.217Z,15.38
2019-05-21T20:05:06.194Z,15.07
2019-05-21T20:08:14.507Z,15.01
2019-05-21T20:11:21.192Z,14.86
2019-05-21T20:14:30.920Z,14.91
2019-05-21T20:17:38.827Z,14.82
2019-05-21T20:20:46.176Z,14.89
2019-05-21T20:23:56.225Z,14.88
2019-05-21T20:27:02.807Z,14.91
2019-05-21T20:30:14.447Z,14.80
2019-05-21T20:33:20.367Z,14.71
2019-05-21T20:36:27.542Z,14.82
2019-05-21T20:39:35.139Z,14.76
2019-05-21T20:42:47.537Z,14.76
2019-05-21T20:45:54.980Z,14.70
2019-05-21T20:49:01.808Z,14.79
2019-05-21T20:52:18.087Z,14.58
2019-05-21T20:55:19.058Z,14.56
2019-05-21T20:58:26.034Z,14.34
2019-05-21T21:01:32.943Z,14.46
2019-05-21T21:04:39.801Z,14.26
2019-05-21T21:07:49.527Z,14.32
2019-05-21T21:10:56.779Z,14.53
2019-05-21T21:14:17.445Z,14.16
2019-05-21T21:17:14.521Z,14.21
2019-05-21T21:20:21.532Z,14.37
2019-05-21T21:23:29.817Z,14.35
2019-05-21T21:26:36.681Z,14.11
2019-05-21T21:29:44.679Z,14.23
2019-05-21T21:32:55.235Z,14.18
2019-05-21T21:36:01.713Z,14.19
2019-05-21T21:39:10.674Z,14.10
2019-05-21T21:42:18.273Z,14.19
2019-05-21T21:45:26.018Z,14.21
2019-05-21T21:48:32.749Z,14.13
2019-05-21T21:51:39.506Z,14.09
2019-05-21T21:54:46.812Z,14.22
2019-05-21T21:57:54.490Z,14.12
2019-05-21T22:01:49.422Z,14.11
2019-05-21T22:04:57.667Z,13.93
2019-05-21T22:08:05.103Z,14.14
2019-05-21T22:11:14.784Z,14.17
2019-05-21T22:14:24.252Z,13.96
2019-05-21T22:17:31.220Z,14.08
2019-05-21T22:20:38.225Z,14.09
2019-05-21T22:23:45.165Z,14.09
2019-05-21T22:26:51.868Z,14.00
2019-05-21T22:29:58.663Z,14.09
2019-05-21T22:33:06.322Z,14.09
2019-05-21T22:36:12.928Z,14.02
2019-05-21T22:39:26.892Z,13.95
2019-05-21T22:42:36.573Z,13.88
2019-05-21T22:45:46.156Z,14.01
2019-05-21T22:48:52.776Z,14.03
2019-05-21T22:51:59.346Z,13.97
2019-05-21T22:55:06.058Z,13.94
2019-05-21T22:58:12.913Z,13.98
2019-05-21T23:01:19.538Z,14.01
2019-05-21T23:04:26.374Z,13.92
2019-05-21T23:07:34.675Z,14.04
2019-05-21T23:10:41.617Z,13.68
2019-05-21T23:13:52.530Z,13.68
2019-05-21T23:17:01.042Z,13.80
2019-05-21T23:20:14.905Z,13.74
2019-05-21T23:23:25.811Z,13.59
2019-05-21T23:26:38.035Z,13.44
2019-05-21T23:29:45.210Z,13.39
2019-05-21T23:32:52.183Z,13.40
2019-05-21T23:35:58.979Z,13.36
2019-05-21T23:39:09.665Z,13.30
2019-05-21T23:42:28.655Z,13.41
2019-05-21T23:45:26.970Z,13.47
2019-05-21T23:48:33.515Z,13.45
2019-05-21T23:51:41.272Z,13.50
2019-05-21T23:54:48.094Z,13.35
2019-05-21T23:57:56.713Z,13.43
